Flight Track Log - Related Links

Times and Time Zones

All times are in EDT time to prevent confusion due to time zone crossing. See the EJA589 flight status page for this flight to view local times or setup timezone preferences in your user account.


Time Position Orientation Groundspeed Altitude Reporting Facility
EDT Latitude Longitude Course Direction KTS MPH feet Rate Location/Type
Thu 04:35:41 PM 42.5261 -76.3719 106° East 227 261 7,500  Level New York Center
Thu 04:36:04 PM 42.5169 -76.3333 108° East 240 276 8,600 4,410 Climbing Boston Center
Thu 04:37:04 PM 42.4878 -76.2106 108° East 293 337 13,600 3,700 Climbing Boston Center
Thu 04:38:04 PM 42.4567 -76.0819 108° East 326 375 16,000 1,650 Climbing Boston Center
Thu 04:39:04 PM 42.4233 -75.9450 108° East 362 417 16,900 450 Climbing Boston Center
Thu 04:40:00 PM 42.3200 -75.6706 106° East  Level FlightAware Approximate
Thu 04:40:04 PM 42.3881 -75.7994 108° East 386 444 16,900  Level Boston Center
Thu 04:41:00 PM 42.2912 -75.5365 106° East  Level FlightAware Approximate
Thu 04:41:04 PM 42.3547 -75.6600 108° East 393 452 16,900  Level Boston Center
Thu 04:42:04 PM 42.3211 -75.5206 108° East 393 452 16,900 50 Level Boston Center
Thu 04:43:04 PM 42.2892 -75.3900 108° East 393 452 17,000 50 Climbing Boston Center
Thu 04:44:04 PM 42.2531 -75.2508 109° East 393 452 17,000 -50 Level Boston Center
Thu 04:45:04 PM 42.2131 -75.0947 109° East 393 452 16,900 -50 Descending Boston Center
Thu 04:46:04 PM 42.1744 -74.9531 110° East 393 452 16,900  Level Boston Center
Thu 04:47:04 PM 42.1231 -74.8278 119° Southeast 388 447 16,900 -550 Level Boston Center
Thu 04:48:04 PM 42.0692 -74.7056 121° Southeast 388 447 15,800 -2,350 Descending Boston Center
Thu 04:49:04 PM 42.0256 -74.5950 118° Southeast 377 434 12,200 -2,500 Descending Boston Center
Thu 04:51:04 PM 41.9397 -74.3911 119° Southeast 305 351 8,300 -1,700 Descending Boston Center
Thu 04:52:04 PM 41.8994 -74.2978 120° Southeast 271 312 7,100 -650 Descending Boston Center
Thu 04:53:04 PM 41.8656 -74.2158 119° Southeast 271 312 7,000 -50 Descending Boston Center
Thu 04:54:04 PM 41.8189 -74.1256 125° Southeast 276 318 7,000  Level Boston Center
Thu 04:55:04 PM 41.7697 -74.0600 135° Southeast 258 297 7,000 -400 Level Boston Center
Thu 04:56:04 PM 41.7139 -74.0308 159° South 235 270 6,200 -500 Descending Boston Center
Thu 04:57:04 PM 41.6497 -73.9958 158° South 230 265 6,000 -100 Descending Boston Center
Thu 04:58:04 PM 41.5939 -73.9667 159° South 225 259 6,000  Level Boston Center
Thu 04:59:16 PM 41.5319 -73.9319 157° South 237 273 6,000  Level Boston Center
Thu 05:01:00 PM 41.3879 -73.8621 169° South  Level Estimated
Thu 05:01:15 PM 41.4000 -73.8500 169° South 241 277 6,000  Level New York TRACON
Thu 05:03:15 PM 41.2833 -73.7500 147° Southeast 240 276 4,400 -733 Descending New York TRACON
Thu 05:04:15 PM 41.2333 -73.7000 143° Southeast 219 252 3,800 -700 Descending New York TRACON
Thu 05:05:15 PM 41.1833 -73.6667 153° Southeast 194 223 3,000 -800 Descending New York TRACON
Thu 05:06:15 PM 41.1500 -73.6167 132° Southeast 191 220 2,200 -500 Descending New York TRACON
Thu 05:07:15 PM 41.1000 -73.6000 166° South 194 223 2,000 -100 Descending New York TRACON
Thu 05:08:15 PM 41.0500 -73.5833 166° South 190 219 2,000  Level New York TRACON
Thu 05:09:15 PM 41.0000 -73.5667 166° South 171 197 2,000  Level New York TRACON
Thu 05:10:15 PM 40.9667 -73.6000 217° Southwest 171 197 2,000 -100 Level New York TRACON
Thu 05:11:15 PM 41.0000 -73.6500 311° West 156 180 1,800 -474 Descending New York TRACON
Thu 05:12:09 PM 41.0333 -73.6833 323° Northwest 144 166 1,100 -778 Descending New York TRACON

Login

Don't have an account? Register now (free) for customized features, flight alerts, and more!